sensor_id;sensor_type;location;lat;lon;timestamp;temperature;humidity
21944;DHT22;11136;48.778;9.126;2022-09-20T00:00:03;10.40;99.90
21944;DHT22;11136;48.778;9.126;2022-09-20T00:02:29;10.40;99.90
21944;DHT22;11136;48.778;9.126;2022-09-20T00:04:55;10.40;99.90
21944;DHT22;11136;48.778;9.126;2022-09-20T00:07:21;10.40;99.90
21944;DHT22;11136;48.778;9.126;2022-09-20T00:09:46;10.40;99.90
21944;DHT22;11136;48.778;9.126;2022-09-20T00:12:12;10.40;99.90
21944;DHT22;11136;48.778;9.126;2022-09-20T00:14:37;10.50;99.90
21944;DHT22;11136;48.778;9.126;2022-09-20T00:17:03;10.50;99.90
21944;DHT22;11136;48.778;9.126;2022-09-20T00:19:29;10.40;99.90
21944;DHT22;11136;48.778;9.126;2022-09-20T00:21:54;10.40;99.90
21944;DHT22;11136;48.778;9.126;2022-09-20T00:24:20;10.40;99.90
21944;DHT22;11136;48.778;9.126;2022-09-20T00:26:45;10.40;99.90
21944;DHT22;11136;48.778;9.126;2022-09-20T00:29:11;10.40;99.90
21944;DHT22;11136;48.778;9.126;2022-09-20T00:31:37;10.40;99.90
21944;DHT22;11136;48.778;9.126;2022-09-20T00:34:04;10.40;99.90
21944;DHT22;11136;48.778;9.126;2022-09-20T00:36:49;10.30;99.90
21944;DHT22;11136;48.778;9.126;2022-09-20T00:39:15;10.30;99.90
21944;DHT22;11136;48.778;9.126;2022-09-20T00:41:41;10.30;99.90
21944;DHT22;11136;48.778;9.126;2022-09-20T00:52:47;10.20;99.90
21944;DHT22;11136;48.778;9.126;2022-09-20T00:55:15;10.20;99.90
21944;DHT22;11136;48.778;9.126;2022-09-20T00:57:41;10.20;99.90
21944;DHT22;11136;48.778;9.126;2022-09-20T01:00:09;10.10;99.90
21944;DHT22;11136;48.778;9.126;2022-09-20T01:02:40;10.10;99.90
21944;DHT22;11136;48.778;9.126;2022-09-20T01:05:08;10.10;99.90
21944;DHT22;11136;48.778;9.126;2022-09-20T01:07:34;10.10;99.90
21944;DHT22;11136;48.778;9.126;2022-09-20T01:09:59;10.10;99.90
21944;DHT22;11136;48.778;9.126;2022-09-20T01:12:29;10.10;99.90
21944;DHT22;11136;48.778;9.126;2022-09-20T01:14:57;10.10;99.90
21944;DHT22;11136;48.778;9.126;2022-09-20T01:17:26;10.00;99.90
21944;DHT22;11136;48.778;9.126;2022-09-20T01:20:13;10.00;99.90
21944;DHT22;11136;48.778;9.126;2022-09-20T01:28:05;10.00;99.90
21944;DHT22;11136;48.778;9.126;2022-09-20T01:30:39;10.00;99.90
21944;DHT22;11136;48.778;9.126;2022-09-20T01:35:49;10.10;99.90
21944;DHT22;11136;48.778;9.126;2022-09-20T01:38:28;9.90;99.90
21944;DHT22;11136;48.778;9.126;2022-09-20T01:41:28;9.90;99.90
21944;DHT22;11136;48.778;9.126;2022-09-20T01:46:37;9.80;99.90
21944;DHT22;11136;48.778;9.126;2022-09-20T01:52:10;9.80;99.90
21944;DHT22;11136;48.778;9.126;2022-09-20T02:00:28;9.80;99.90
21944;DHT22;11136;48.778;9.126;2022-09-20T02:03:13;9.80;99.90
21944;DHT22;11136;48.778;9.126;2022-09-20T02:09:19;9.90;99.90
21944;DHT22;11136;48.778;9.126;2022-09-20T02:17:31;9.90;99.90
21944;DHT22;11136;48.778;9.126;2022-09-20T02:20:22;9.90;99.90
21944;DHT22;11136;48.778;9.126;2022-09-20T02:28:53;10.00;99.90
21944;DHT22;11136;48.778;9.126;2022-09-20T02:34:02;10.00;99.90
21944;DHT22;11136;48.778;9.126;2022-09-20T02:39:36;10.00;99.90
21944;DHT22;11136;48.778;9.126;2022-09-20T02:42:17;10.00;99.90
21944;DHT22;11136;48.778;9.126;2022-09-20T02:47:48;10.00;99.90
21944;DHT22;11136;48.778;9.126;2022-09-20T02:50:22;10.00;99.90
21944;DHT22;11136;48.778;9.126;2022-09-20T02:53:25;10.00;99.90
21944;DHT22;11136;48.778;9.126;2022-09-20T02:56:21;10.00;99.90
21944;DHT22;11136;48.778;9.126;2022-09-20T02:59:24;10.00;99.90
21944;DHT22;11136;48.778;9.126;2022-09-20T03:02:26;10.00;99.90
21944;DHT22;11136;48.778;9.126;2022-09-20T03:05:21;10.00;99.90
21944;DHT22;11136;48.778;9.126;2022-09-20T03:11:31;10.00;99.90
21944;DHT22;11136;48.778;9.126;2022-09-20T03:14:12;10.00;99.90
21944;DHT22;11136;48.778;9.126;2022-09-20T03:16:58;10.00;99.90
21944;DHT22;11136;48.778;9.126;2022-09-20T03:28:10;9.90;99.90
21944;DHT22;11136;48.778;9.126;2022-09-20T03:33:59;9.90;99.90
21944;DHT22;11136;48.778;9.126;2022-09-20T03:42:10;9.90;99.90
21944;DHT22;11136;48.778;9.126;2022-09-20T03:56:28;9.90;99.90
21944;DHT22;11136;48.778;9.126;2022-09-20T04:02:44;10.00;99.90
21944;DHT22;11136;48.778;9.126;2022-09-20T04:11:15;10.00;99.90
21944;DHT22;11136;48.778;9.126;2022-09-20T04:13:53;10.10;99.90
21944;DHT22;11136;48.778;9.126;2022-09-20T04:16:32;10.10;99.90
21944;DHT22;11136;48.778;9.126;2022-09-20T04:19:22;10.10;99.90
21944;DHT22;11136;48.778;9.126;2022-09-20T04:21:59;10.10;99.90
21944;DHT22;11136;48.778;9.126;2022-09-20T04:24:52;10.10;99.90
21944;DHT22;11136;48.778;9.126;2022-09-20T04:32:50;10.10;99.90
21944;DHT22;11136;48.778;9.126;2022-09-20T04:38:19;10.20;99.90
21944;DHT22;11136;48.778;9.126;2022-09-20T04:46:17;10.20;99.90
21944;DHT22;11136;48.778;9.126;2022-09-20T04:49:03;10.20;99.90
21944;DHT22;11136;48.778;9.126;2022-09-20T04:52:25;10.20;99.90
21944;DHT22;11136;48.778;9.126;2022-09-20T05:00:08;10.20;99.90
21944;DHT22;11136;48.778;9.126;2022-09-20T05:07:52;10.20;99.90
21944;DHT22;11136;48.778;9.126;2022-09-20T05:13:11;10.20;99.90
21944;DHT22;11136;48.778;9.126;2022-09-20T05:27:21;10.20;99.90
21944;DHT22;11136;48.778;9.126;2022-09-20T05:30:14;10.20;99.90
21944;DHT22;11136;48.778;9.126;2022-09-20T05:35:31;10.20;99.90
21944;DHT22;11136;48.778;9.126;2022-09-20T05:38:06;10.20;99.90
21944;DHT22;11136;48.778;9.126;2022-09-20T05:40:56;10.20;99.90
21944;DHT22;11136;48.778;9.126;2022-09-20T05:48:52;10.20;99.90
21944;DHT22;11136;48.778;9.126;2022-09-20T05:51:26;10.10;99.90
21944;DHT22;11136;48.778;9.126;2022-09-20T05:54:15;10.10;99.90
21944;DHT22;11136;48.778;9.126;2022-09-20T05:57:02;10.20;99.90
21944;DHT22;11136;48.778;9.126;2022-09-20T06:02:39;10.20;99.90
21944;DHT22;11136;48.778;9.126;2022-09-20T06:05:18;10.20;99.90
21944;DHT22;11136;48.778;9.126;2022-09-20T06:08:17;10.30;99.90
21944;DHT22;11136;48.778;9.126;2022-09-20T06:16:01;10.40;99.90
21944;DHT22;11136;48.778;9.126;2022-09-20T06:18:56;10.40;99.90
21944;DHT22;11136;48.778;9.126;2022-09-20T06:23:56;10.50;99.90
21944;DHT22;11136;48.778;9.126;2022-09-20T06:26:26;10.50;99.90
21944;DHT22;11136;48.778;9.126;2022-09-20T06:29:02;10.50;99.90
21944;DHT22;11136;48.778;9.126;2022-09-20T06:31:28;10.50;99.90
21944;DHT22;11136;48.778;9.126;2022-09-20T06:34:04;10.60;99.90
21944;DHT22;11136;48.778;9.126;2022-09-20T06:36:43;10.60;99.90
21944;DHT22;11136;48.778;9.126;2022-09-20T06:42:25;10.70;99.90
21944;DHT22;11136;48.778;9.126;2022-09-20T06:44:54;10.70;99.90
21944;DHT22;11136;48.778;9.126;2022-09-20T06:47:20;10.80;99.90
21944;DHT22;11136;48.778;9.126;2022-09-20T06:49:47;10.80;99.90
21944;DHT22;11136;48.778;9.126;2022-09-20T06:52:17;10.90;99.90
21944;DHT22;11136;48.778;9.126;2022-09-20T06:54:43;10.90;99.90
21944;DHT22;11136;48.778;9.126;2022-09-20T06:57:17;11.00;99.90
21944;DHT22;11136;48.778;9.126;2022-09-20T06:59:43;11.00;99.90
21944;DHT22;11136;48.778;9.126;2022-09-20T07:02:10;11.10;99.90
21944;DHT22;11136;48.778;9.126;2022-09-20T07:04:35;11.10;99.90
21944;DHT22;11136;48.778;9.126;2022-09-20T07:07:02;11.20;99.90
21944;DHT22;11136;48.778;9.126;2022-09-20T07:09:28;11.20;99.90
21944;DHT22;11136;48.778;9.126;2022-09-20T07:11:54;11.20;99.90
21944;DHT22;11136;48.778;9.126;2022-09-20T07:14:21;11.30;99.90
21944;DHT22;11136;48.778;9.126;2022-09-20T07:16:47;11.30;99.90
21944;DHT22;11136;48.778;9.126;2022-09-20T07:19:13;11.30;99.90
21944;DHT22;11136;48.778;9.126;2022-09-20T07:21:38;11.40;99.90
21944;DHT22;11136;48.778;9.126;2022-09-20T07:24:04;11.40;99.90
21944;DHT22;11136;48.778;9.126;2022-09-20T07:26:30;11.50;99.90
21944;DHT22;11136;48.778;9.126;2022-09-20T07:28:57;11.60;99.90
21944;DHT22;11136;48.778;9.126;2022-09-20T07:31:25;11.80;99.90
21944;DHT22;11136;48.778;9.126;2022-09-20T07:33:51;12.10;99.90
21944;DHT22;11136;48.778;9.126;2022-09-20T07:36:16;12.20;99.90
21944;DHT22;11136;48.778;9.126;2022-09-20T07:38:46;12.60;99.90
21944;DHT22;11136;48.778;9.126;2022-09-20T07:41:12;13.10;99.90
21944;DHT22;11136;48.778;9.126;2022-09-20T07:43:38;13.00;99.90
21944;DHT22;11136;48.778;9.126;2022-09-20T07:46:04;12.90;99.90
21944;DHT22;11136;48.778;9.126;2022-09-20T07:48:32;13.00;99.90
21944;DHT22;11136;48.778;9.126;2022-09-20T07:51:03;13.00;99.90
21944;DHT22;11136;48.778;9.126;2022-09-20T07:53:29;13.10;99.90
21944;DHT22;11136;48.778;9.126;2022-09-20T07:56:03;13.10;99.90
21944;DHT22;11136;48.778;9.126;2022-09-20T07:58:31;13.20;99.90
21944;DHT22;11136;48.778;9.126;2022-09-20T08:01:00;13.10;99.90
21944;DHT22;11136;48.778;9.126;2022-09-20T08:03:25;13.00;99.90
21944;DHT22;11136;48.778;9.126;2022-09-20T08:05:57;12.90;99.90
21944;DHT22;11136;48.778;9.126;2022-09-20T08:08:23;12.90;99.90
21944;DHT22;11136;48.778;9.126;2022-09-20T08:10:48;12.80;99.90
21944;DHT22;11136;48.778;9.126;2022-09-20T08:13:14;12.80;99.90
21944;DHT22;11136;48.778;9.126;2022-09-20T08:15:41;12.80;99.90
21944;DHT22;11136;48.778;9.126;2022-09-20T08:18:09;12.80;99.90
21944;DHT22;11136;48.778;9.126;2022-09-20T08:20:37;12.90;99.90
21944;DHT22;11136;48.778;9.126;2022-09-20T08:23:06;13.00;99.90
21944;DHT22;11136;48.778;9.126;2022-09-20T08:25:33;13.10;99.90
21944;DHT22;11136;48.778;9.126;2022-09-20T08:27:59;13.40;99.90
21944;DHT22;11136;48.778;9.126;2022-09-20T08:30:24;13.70;99.90
21944;DHT22;11136;48.778;9.126;2022-09-20T08:32:50;14.00;99.90
21944;DHT22;11136;48.778;9.126;2022-09-20T08:35:19;14.40;99.90
21944;DHT22;11136;48.778;9.126;2022-09-20T08:37:46;15.10;99.90
21944;DHT22;11136;48.778;9.126;2022-09-20T08:40:12;15.10;99.90
21944;DHT22;11136;48.778;9.126;2022-09-20T08:42:41;15.20;99.90
21944;DHT22;11136;48.778;9.126;2022-09-20T08:45:20;15.30;99.90
21944;DHT22;11136;48.778;9.126;2022-09-20T08:47:54;15.40;99.90
21944;DHT22;11136;48.778;9.126;2022-09-20T08:50:21;15.40;99.90
21944;DHT22;11136;48.778;9.126;2022-09-20T08:52:48;15.40;99.90
21944;DHT22;11136;48.778;9.126;2022-09-20T08:55:25;15.30;99.90
21944;DHT22;11136;48.778;9.126;2022-09-20T08:57:55;15.30;99.90
21944;DHT22;11136;48.778;9.126;2022-09-20T09:00:30;15.20;99.90
21944;DHT22;11136;48.778;9.126;2022-09-20T09:02:58;15.20;99.90
21944;DHT22;11136;48.778;9.126;2022-09-20T09:05:34;15.10;99.90
21944;DHT22;11136;48.778;9.126;2022-09-20T09:08:08;15.00;99.90
21944;DHT22;11136;48.778;9.126;2022-09-20T09:10:37;14.90;99.90
21944;DHT22;11136;48.778;9.126;2022-09-20T09:13:04;14.80;99.90
21944;DHT22;11136;48.778;9.126;2022-09-20T09:15:33;14.80;99.90
21944;DHT22;11136;48.778;9.126;2022-09-20T09:17:59;14.90;99.90
21944;DHT22;11136;48.778;9.126;2022-09-20T09:20:26;14.90;99.90
21944;DHT22;11136;48.778;9.126;2022-09-20T09:23:03;15.10;99.90
21944;DHT22;11136;48.778;9.126;2022-09-20T09:25:31;15.10;99.90
21944;DHT22;11136;48.778;9.126;2022-09-20T09:28:00;15.30;99.90
21944;DHT22;11136;48.778;9.126;2022-09-20T09:30:30;15.50;99.90
21944;DHT22;11136;48.778;9.126;2022-09-20T09:35:42;15.80;99.90
21944;DHT22;11136;48.778;9.126;2022-09-20T09:38:18;16.00;99.90
21944;DHT22;11136;48.778;9.126;2022-09-20T09:40:54;16.10;99.90
21944;DHT22;11136;48.778;9.126;2022-09-20T09:43:22;16.00;99.90
21944;DHT22;11136;48.778;9.126;2022-09-20T09:45:49;15.90;99.90
21944;DHT22;11136;48.778;9.126;2022-09-20T09:50:47;15.70;99.90
21944;DHT22;11136;48.778;9.126;2022-09-20T09:53:17;15.50;99.90
21944;DHT22;11136;48.778;9.126;2022-09-20T09:59:23;15.50;99.90
21944;DHT22;11136;48.778;9.126;2022-09-20T10:04:39;14.90;99.90
21944;DHT22;11136;48.778;9.126;2022-09-20T10:12:50;14.80;99.90
21944;DHT22;11136;48.778;9.126;2022-09-20T10:15:34;14.80;99.90
21944;DHT22;11136;48.778;9.126;2022-09-20T10:26:35;14.60;99.90
21944;DHT22;11136;48.778;9.126;2022-09-20T10:29:09;14.80;99.90
21944;DHT22;11136;48.778;9.126;2022-09-20T10:37:35;15.10;99.90
21944;DHT22;11136;48.778;9.126;2022-09-20T10:42:58;15.10;99.90
21944;DHT22;11136;48.778;9.126;2022-09-20T10:48:26;15.10;99.90
21944;DHT22;11136;48.778;9.126;2022-09-20T10:51:03;15.00;99.90
21944;DHT22;11136;48.778;9.126;2022-09-20T10:56:26;14.90;99.90
21944;DHT22;11136;48.778;9.126;2022-09-20T10:59:06;14.80;99.90
21944;DHT22;11136;48.778;9.126;2022-09-20T11:04:45;14.80;99.90
21944;DHT22;11136;48.778;9.126;2022-09-20T11:10:20;14.80;99.90
21944;DHT22;11136;48.778;9.126;2022-09-20T11:13:32;14.80;99.90
21944;DHT22;11136;48.778;9.126;2022-09-20T11:15:58;14.90;99.90
21944;DHT22;11136;48.778;9.126;2022-09-20T11:18:41;15.10;99.90
21944;DHT22;11136;48.778;9.126;2022-09-20T11:23:46;15.20;99.90
21944;DHT22;11136;48.778;9.126;2022-09-20T11:26:30;15.30;99.90
21944;DHT22;11136;48.778;9.126;2022-09-20T11:29:49;15.50;99.90
21944;DHT22;11136;48.778;9.126;2022-09-20T11:31:49;15.70;99.90
21944;DHT22;11136;48.778;9.126;2022-09-20T11:34:27;15.80;99.90
21944;DHT22;11136;48.778;9.126;2022-09-20T11:36:59;15.90;99.90
21944;DHT22;11136;48.778;9.126;2022-09-20T11:39:42;15.90;99.90
21944;DHT22;11136;48.778;9.126;2022-09-20T11:42:24;15.90;99.90
21944;DHT22;11136;48.778;9.126;2022-09-20T11:44:52;15.90;99.90
21944;DHT22;11136;48.778;9.126;2022-09-20T11:47:32;15.80;99.90
21944;DHT22;11136;48.778;9.126;2022-09-20T11:50:35;15.80;99.90
21944;DHT22;11136;48.778;9.126;2022-09-20T11:56:06;15.60;99.90
21944;DHT22;11136;48.778;9.126;2022-09-20T11:58:51;15.60;99.90
21944;DHT22;11136;48.778;9.126;2022-09-20T12:01:27;15.60;99.90
21944;DHT22;11136;48.778;9.126;2022-09-20T12:03:59;15.60;99.90
21944;DHT22;11136;48.778;9.126;2022-09-20T12:06:33;15.70;99.90
21944;DHT22;11136;48.778;9.126;2022-09-20T12:09:21;15.80;99.90
21944;DHT22;11136;48.778;9.126;2022-09-20T12:11:47;16.00;99.90
21944;DHT22;11136;48.778;9.126;2022-09-20T12:14:24;16.10;99.90
21944;DHT22;11136;48.778;9.126;2022-09-20T12:16:50;16.10;99.90
21944;DHT22;11136;48.778;9.126;2022-09-20T12:24:29;16.60;99.90
21944;DHT22;11136;48.778;9.126;2022-09-20T12:30:19;16.40;99.90
21944;DHT22;11136;48.778;9.126;2022-09-20T12:32:51;16.50;99.90
21944;DHT22;11136;48.778;9.126;2022-09-20T12:38:26;16.60;99.90
21944;DHT22;11136;48.778;9.126;2022-09-20T12:43:35;16.70;99.90
21944;DHT22;11136;48.778;9.126;2022-09-20T12:46:01;16.80;99.90
21944;DHT22;11136;48.778;9.126;2022-09-20T12:48:33;16.90;99.90
21944;DHT22;11136;48.778;9.126;2022-09-20T12:51:18;16.90;99.90
21944;DHT22;11136;48.778;9.126;2022-09-20T12:54:06;17.00;99.90
21944;DHT22;11136;48.778;9.126;2022-09-20T12:56:39;17.10;99.90
21944;DHT22;11136;48.778;9.126;2022-09-20T12:59:19;17.20;99.90
21944;DHT22;11136;48.778;9.126;2022-09-20T13:01:45;17.30;99.90
21944;DHT22;11136;48.778;9.126;2022-09-20T13:07:31;17.80;99.90
21944;DHT22;11136;48.778;9.126;2022-09-20T13:10:01;18.30;99.90
21944;DHT22;11136;48.778;9.126;2022-09-20T13:12:28;18.80;99.90
21944;DHT22;11136;48.778;9.126;2022-09-20T13:14:54;19.50;99.90
21944;DHT22;11136;48.778;9.126;2022-09-20T13:17:28;20.30;99.90
21944;DHT22;11136;48.778;9.126;2022-09-20T13:19:57;21.00;99.90
21944;DHT22;11136;48.778;9.126;2022-09-20T13:22:37;21.40;99.70
21944;DHT22;11136;48.778;9.126;2022-09-20T13:25:13;21.40;98.70
21944;DHT22;11136;48.778;9.126;2022-09-20T13:27:49;21.20;98.20
21944;DHT22;11136;48.778;9.126;2022-09-20T13:32:41;20.60;96.40
21944;DHT22;11136;48.778;9.126;2022-09-20T13:37:46;19.80;93.60
21944;DHT22;11136;48.778;9.126;2022-09-20T13:40:32;19.40;94.00
21944;DHT22;11136;48.778;9.126;2022-09-20T13:43:00;19.00;95.20
21944;DHT22;11136;48.778;9.126;2022-09-20T13:45:27;18.80;95.50
21944;DHT22;11136;48.778;9.126;2022-09-20T13:47:54;18.60;95.40
21944;DHT22;11136;48.778;9.126;2022-09-20T13:52:50;18.30;94.90
21944;DHT22;11136;48.778;9.126;2022-09-20T13:57:45;18.00;95.20
21944;DHT22;11136;48.778;9.126;2022-09-20T14:00:13;17.80;94.00
21944;DHT22;11136;48.778;9.126;2022-09-20T14:02:40;17.70;94.00
21944;DHT22;11136;48.778;9.126;2022-09-20T14:05:12;17.50;93.80
21944;DHT22;11136;48.778;9.126;2022-09-20T14:07:43;17.20;93.80
21944;DHT22;11136;48.778;9.126;2022-09-20T14:10:31;17.10;93.90
21944;DHT22;11136;48.778;9.126;2022-09-20T14:13:05;16.90;93.70
21944;DHT22;11136;48.778;9.126;2022-09-20T14:15:42;16.70;93.40
21944;DHT22;11136;48.778;9.126;2022-09-20T14:18:13;16.60;94.10
21944;DHT22;11136;48.778;9.126;2022-09-20T14:20:42;16.50;94.80
21944;DHT22;11136;48.778;9.126;2022-09-20T14:23:20;16.40;95.20
21944;DHT22;11136;48.778;9.126;2022-09-20T14:28:42;16.30;95.70
21944;DHT22;11136;48.778;9.126;2022-09-20T14:31:19;16.20;95.20
21944;DHT22;11136;48.778;9.126;2022-09-20T14:33:48;16.20;94.70
21944;DHT22;11136;48.778;9.126;2022-09-20T14:36:22;16.10;94.50
21944;DHT22;11136;48.778;9.126;2022-09-20T14:38:51;16.00;95.20
21944;DHT22;11136;48.778;9.126;2022-09-20T14:41:35;16.00;95.40
21944;DHT22;11136;48.778;9.126;2022-09-20T14:44:02;16.00;95.10
21944;DHT22;11136;48.778;9.126;2022-09-20T14:46:34;16.00;95.60
21944;DHT22;11136;48.778;9.126;2022-09-20T14:51:48;16.00;94.90
21944;DHT22;11136;48.778;9.126;2022-09-20T14:54:26;16.00;94.80
21944;DHT22;11136;48.778;9.126;2022-09-20T14:56:53;16.00;95.20
21944;DHT22;11136;48.778;9.126;2022-09-20T14:59:20;16.00;94.60
21944;DHT22;11136;48.778;9.126;2022-09-20T15:02:14;16.00;94.70
21944;DHT22;11136;48.778;9.126;2022-09-20T15:04:41;16.00;94.90
21944;DHT22;11136;48.778;9.126;2022-09-20T15:07:16;16.10;94.80
21944;DHT22;11136;48.778;9.126;2022-09-20T15:09:41;16.20;95.00
21944;DHT22;11136;48.778;9.126;2022-09-20T15:12:15;16.40;95.50
21944;DHT22;11136;48.778;9.126;2022-09-20T15:14:41;16.60;95.40
21944;DHT22;11136;48.778;9.126;2022-09-20T15:17:13;16.80;95.40
21944;DHT22;11136;48.778;9.126;2022-09-20T15:19:39;16.90;94.00
21944;DHT22;11136;48.778;9.126;2022-09-20T15:22:06;16.90;94.00
21944;DHT22;11136;48.778;9.126;2022-09-20T15:24:32;16.90;93.90
21944;DHT22;11136;48.778;9.126;2022-09-20T15:26:58;16.80;92.20
21944;DHT22;11136;48.778;9.126;2022-09-20T15:29:23;16.80;91.00
21944;DHT22;11136;48.778;9.126;2022-09-20T15:31:50;16.60;90.20
21944;DHT22;11136;48.778;9.126;2022-09-20T15:34:15;16.50;89.70
21944;DHT22;11136;48.778;9.126;2022-09-20T15:36:41;16.40;90.20
21944;DHT22;11136;48.778;9.126;2022-09-20T15:39:07;16.30;89.60
21944;DHT22;11136;48.778;9.126;2022-09-20T15:41:34;16.20;88.20
21944;DHT22;11136;48.778;9.126;2022-09-20T15:44:01;16.10;88.00
21944;DHT22;11136;48.778;9.126;2022-09-20T15:46:26;16.10;88.70
21944;DHT22;11136;48.778;9.126;2022-09-20T15:48:53;16.00;89.40
21944;DHT22;11136;48.778;9.126;2022-09-20T15:51:19;15.90;88.80
21944;DHT22;11136;48.778;9.126;2022-09-20T15:53:47;15.90;90.00
21944;DHT22;11136;48.778;9.126;2022-09-20T15:56:23;15.80;89.50
21944;DHT22;11136;48.778;9.126;2022-09-20T15:58:50;15.80;90.00
21944;DHT22;11136;48.778;9.126;2022-09-20T16:01:18;15.70;90.00
21944;DHT22;11136;48.778;9.126;2022-09-20T16:03:45;15.70;89.70
21944;DHT22;11136;48.778;9.126;2022-09-20T16:06:11;15.70;90.50
21944;DHT22;11136;48.778;9.126;2022-09-20T16:08:39;15.60;90.50
21944;DHT22;11136;48.778;9.126;2022-09-20T16:11:07;15.60;90.30
21944;DHT22;11136;48.778;9.126;2022-09-20T16:13:33;15.60;90.40
21944;DHT22;11136;48.778;9.126;2022-09-20T16:16:03;15.50;91.00
21944;DHT22;11136;48.778;9.126;2022-09-20T16:18:29;15.50;90.90
21944;DHT22;11136;48.778;9.126;2022-09-20T16:21:16;15.50;90.70
21944;DHT22;11136;48.778;9.126;2022-09-20T16:23:49;15.50;91.00
21944;DHT22;11136;48.778;9.126;2022-09-20T16:26:15;15.40;91.40
21944;DHT22;11136;48.778;9.126;2022-09-20T16:28:42;15.40;91.20
21944;DHT22;11136;48.778;9.126;2022-09-20T16:31:35;15.40;91.20
21944;DHT22;11136;48.778;9.126;2022-09-20T16:34:03;15.40;91.40
21944;DHT22;11136;48.778;9.126;2022-09-20T16:36:31;15.30;91.50
21944;DHT22;11136;48.778;9.126;2022-09-20T16:38:56;15.20;91.80
21944;DHT22;11136;48.778;9.126;2022-09-20T16:41:24;15.20;91.70
21944;DHT22;11136;48.778;9.126;2022-09-20T16:43:50;15.20;91.60
21944;DHT22;11136;48.778;9.126;2022-09-20T16:46:24;15.30;91.50
21944;DHT22;11136;48.778;9.126;2022-09-20T16:48:55;15.10;91.30
21944;DHT22;11136;48.778;9.126;2022-09-20T16:51:22;15.10;91.60
21944;DHT22;11136;48.778;9.126;2022-09-20T16:53:50;15.00;91.60
21944;DHT22;11136;48.778;9.126;2022-09-20T16:56:25;15.00;91.90
21944;DHT22;11136;48.778;9.126;2022-09-20T16:58:51;15.00;92.30
21944;DHT22;11136;48.778;9.126;2022-09-20T17:01:17;15.00;92.50
21944;DHT22;11136;48.778;9.126;2022-09-20T17:03:44;15.00;92.80
21944;DHT22;11136;48.778;9.126;2022-09-20T17:06:10;14.90;93.20
21944;DHT22;11136;48.778;9.126;2022-09-20T17:08:37;14.90;93.50
21944;DHT22;11136;48.778;9.126;2022-09-20T17:11:15;14.90;93.50
21944;DHT22;11136;48.778;9.126;2022-09-20T17:13:42;14.90;93.50
21944;DHT22;11136;48.778;9.126;2022-09-20T17:16:19;14.80;93.60
21944;DHT22;11136;48.778;9.126;2022-09-20T17:18:45;14.80;93.70
21944;DHT22;11136;48.778;9.126;2022-09-20T17:21:13;14.80;93.90
21944;DHT22;11136;48.778;9.126;2022-09-20T17:23:45;14.80;94.20
21944;DHT22;11136;48.778;9.126;2022-09-20T17:26:12;14.70;94.40
21944;DHT22;11136;48.778;9.126;2022-09-20T17:28:40;14.70;94.40
21944;DHT22;11136;48.778;9.126;2022-09-20T17:31:06;14.70;94.60
21944;DHT22;11136;48.778;9.126;2022-09-20T17:33:34;14.60;94.80
21944;DHT22;11136;48.778;9.126;2022-09-20T17:36:01;14.70;95.00
21944;DHT22;11136;48.778;9.126;2022-09-20T17:38:31;14.60;95.10
21944;DHT22;11136;48.778;9.126;2022-09-20T17:43:27;14.50;95.00
21944;DHT22;11136;48.778;9.126;2022-09-20T17:45:54;14.40;95.20
21944;DHT22;11136;48.778;9.126;2022-09-20T17:48:21;14.40;95.50
21944;DHT22;11136;48.778;9.126;2022-09-20T17:50:54;14.40;95.80
21944;DHT22;11136;48.778;9.126;2022-09-20T17:53:20;14.30;96.00
21944;DHT22;11136;48.778;9.126;2022-09-20T17:55:56;14.30;96.10
21944;DHT22;11136;48.778;9.126;2022-09-20T17:58:22;14.20;96.40
21944;DHT22;11136;48.778;9.126;2022-09-20T18:00:48;14.30;96.50
21944;DHT22;11136;48.778;9.126;2022-09-20T18:03:14;14.20;96.60
21944;DHT22;11136;48.778;9.126;2022-09-20T18:05:40;14.30;96.70
21944;DHT22;11136;48.778;9.126;2022-09-20T18:08:06;14.20;96.80
21944;DHT22;11136;48.778;9.126;2022-09-20T18:10:32;14.20;96.90
21944;DHT22;11136;48.778;9.126;2022-09-20T18:12:57;14.10;97.00
21944;DHT22;11136;48.778;9.126;2022-09-20T18:15:23;14.10;97.20
21944;DHT22;11136;48.778;9.126;2022-09-20T18:17:49;14.10;97.30
21944;DHT22;11136;48.778;9.126;2022-09-20T18:20:14;14.00;97.40
21944;DHT22;11136;48.778;9.126;2022-09-20T18:22:40;14.00;97.50
21944;DHT22;11136;48.778;9.126;2022-09-20T18:25:06;14.00;97.50
21944;DHT22;11136;48.778;9.126;2022-09-20T18:27:31;13.90;97.70
21944;DHT22;11136;48.778;9.126;2022-09-20T18:29:58;13.90;97.70
21944;DHT22;11136;48.778;9.126;2022-09-20T18:32:24;13.90;97.80
21944;DHT22;11136;48.778;9.126;2022-09-20T18:34:54;13.80;97.90
21944;DHT22;11136;48.778;9.126;2022-09-20T18:37:20;13.80;98.00
21944;DHT22;11136;48.778;9.126;2022-09-20T18:39:45;13.80;98.10
21944;DHT22;11136;48.778;9.126;2022-09-20T18:42:11;14.10;98.20
21944;DHT22;11136;48.778;9.126;2022-09-20T18:44:37;13.60;98.10
21944;DHT22;11136;48.778;9.126;2022-09-20T18:47:03;13.60;98.20
21944;DHT22;11136;48.778;9.126;2022-09-20T18:49:30;13.50;98.20
21944;DHT22;11136;48.778;9.126;2022-09-20T18:51:56;13.40;98.30
21944;DHT22;11136;48.778;9.126;2022-09-20T18:54:22;13.40;98.40
21944;DHT22;11136;48.778;9.126;2022-09-20T18:56:49;13.40;98.40
21944;DHT22;11136;48.778;9.126;2022-09-20T18:59:16;13.40;98.60
21944;DHT22;11136;48.778;9.126;2022-09-20T19:07:30;13.30;98.80
21944;DHT22;11136;48.778;9.126;2022-09-20T19:10:34;13.20;98.90
21944;DHT22;11136;48.778;9.126;2022-09-20T19:16:03;13.10;99.00
21944;DHT22;11136;48.778;9.126;2022-09-20T19:21:53;13.00;99.20
21944;DHT22;11136;48.778;9.126;2022-09-20T19:27:21;13.00;99.50
21944;DHT22;11136;48.778;9.126;2022-09-20T19:29:47;13.00;99.50
21944;DHT22;11136;48.778;9.126;2022-09-20T19:32:17;13.00;99.50
21944;DHT22;11136;48.778;9.126;2022-09-20T19:34:49;12.90;99.60
21944;DHT22;11136;48.778;9.126;2022-09-20T19:37:35;12.90;99.70
21944;DHT22;11136;48.778;9.126;2022-09-20T19:43:09;12.90;99.90
21944;DHT22;11136;48.778;9.126;2022-09-20T19:45:59;12.90;99.90
21944;DHT22;11136;48.778;9.126;2022-09-20T19:48:44;12.90;99.90
21944;DHT22;11136;48.778;9.126;2022-09-20T19:51:12;12.80;99.90
21944;DHT22;11136;48.778;9.126;2022-09-20T19:53:40;12.80;99.90
21944;DHT22;11136;48.778;9.126;2022-09-20T19:58:37;12.80;99.90
21944;DHT22;11136;48.778;9.126;2022-09-20T20:01:04;12.80;99.90
21944;DHT22;11136;48.778;9.126;2022-09-20T20:03:30;12.70;99.90
21944;DHT22;11136;48.778;9.126;2022-09-20T20:06:14;12.70;99.90
21944;DHT22;11136;48.778;9.126;2022-09-20T20:08:45;12.70;99.90
21944;DHT22;11136;48.778;9.126;2022-09-20T20:11:55;12.60;99.90
21944;DHT22;11136;48.778;9.126;2022-09-20T20:28:11;12.40;99.90
21944;DHT22;11136;48.778;9.126;2022-09-20T20:30:36;12.40;99.90
21944;DHT22;11136;48.778;9.126;2022-09-20T20:33:02;12.40;99.90
21944;DHT22;11136;48.778;9.126;2022-09-20T20:35:30;12.60;99.90
21944;DHT22;11136;48.778;9.126;2022-09-20T20:37:56;12.30;99.90